Time;durP1;ratioP1;P1;durP2;ratioP2;P2;SDS_P1;SDS_P2;PMS_P1;PMS_P2;Temp;Humidity;BMP_temperature;BMP_pressure;BME280_temperature;BME280_humidity;BME280_pressure;Samples;Min_cycle;Max_cycle;Signal;HPM_P1;HPM_P2
2021/12/18 00:01:45;;;;;;;14.63;6.77;;;4.80;99.90;;;;;;5094950;28;20248;-80
2021/12/18 00:04:13;;;;;;;13.37;6.30;;;4.70;99.90;;;;;;5094867;28;20203;-83
2021/12/18 00:06:40;;;;;;;17.13;6.10;;;4.70;99.90;;;;;;5094816;28;20207;-80
2021/12/18 00:09:08;;;;;;;12.57;6.33;;;4.70;99.90;;;;;;5094588;28;20223;-80
2021/12/18 00:11:36;;;;;;;10.97;5.53;;;4.70;99.90;;;;;;5094983;28;20181;-81
2021/12/18 00:14:04;;;;;;;17.77;6.70;;;4.70;99.90;;;;;;5094542;28;20192;-81
2021/12/18 00:16:31;;;;;;;20.53;7.70;;;4.70;99.90;;;;;;5094903;28;20202;-80
2021/12/18 00:18:58;;;;;;;17.30;7.97;;;4.70;99.90;;;;;;5094720;28;20183;-80
2021/12/18 00:21:26;;;;;;;17.80;7.60;;;4.70;99.90;;;;;;5094555;28;20219;-80
2021/12/18 00:23:54;;;;;;;17.90;8.37;;;4.70;99.90;;;;;;5094200;28;20222;-79
2021/12/18 00:26:21;;;;;;;15.13;7.00;;;4.60;99.90;;;;;;5094212;28;20195;-78
2021/12/18 00:28:50;;;;;;;17.73;7.20;;;4.70;99.90;;;;;;5094418;28;20201;-78
2021/12/18 00:31:17;;;;;;;14.93;7.13;;;4.60;99.90;;;;;;5094263;28;20570;-82
2021/12/18 00:33:45;;;;;;;14.20;7.60;;;4.60;99.90;;;;;;5094288;28;20203;-80
2021/12/18 00:36:13;;;;;;;19.33;8.73;;;4.60;99.90;;;;;;5094064;28;20592;-78
2021/12/18 00:38:41;;;;;;;19.77;8.63;;;4.60;99.90;;;;;;5094172;28;20636;-80
2021/12/18 00:41:16;;;;;;;18.10;8.10;;;4.60;99.90;;;;;;5093645;28;20196;-79
2021/12/18 00:44:03;;;;;;;20.50;8.03;;;4.60;99.90;;;;;;5094450;28;20214;-80
2021/12/18 00:46:33;;;;;;;16.87;7.57;;;4.60;99.90;;;;;;5093817;28;20237;-79
2021/12/18 00:49:01;;;;;;;18.10;8.53;;;4.60;99.90;;;;;;5094102;28;20179;-80
2021/12/18 00:51:28;;;;;;;27.40;7.70;;;4.60;99.90;;;;;;5093815;28;20205;-80
2021/12/18 00:53:55;;;;;;;24.63;8.90;;;4.50;99.90;;;;;;5093568;28;20191;-80
2021/12/18 00:56:23;;;;;;;23.60;9.47;;;4.50;99.90;;;;;;5093995;28;20191;-81
2021/12/18 00:58:50;;;;;;;39.87;11.30;;;4.50;99.90;;;;;;5093474;28;20312;-80
2021/12/18 01:01:19;;;;;;;37.10;11.70;;;4.50;99.90;;;;;;5093342;28;20195;-81
2021/12/18 01:03:49;;;;;;;52.20;12.90;;;4.50;99.90;;;;;;5093598;28;20218;-80
2021/12/18 01:06:16;;;;;;;59.60;14.53;;;4.40;99.90;;;;;;5094419;28;20264;-80
2021/12/18 01:08:43;;;;;;;68.00;16.77;;;4.50;99.90;;;;;;5093784;28;20208;-79
2021/12/18 01:11:30;;;;;;;78.37;18.27;;;4.40;99.90;;;;;;5093606;28;20198;-81
2021/12/18 01:14:15;;;;;;;90.33;19.17;;;4.40;99.90;;;;;;5093262;28;20191;-80
2021/12/18 01:16:50;;;;;;;104.23;19.60;;;4.40;99.90;;;;;;5093193;28;20183;-79
2021/12/18 01:24:44;;;;;;;98.33;19.43;;;4.40;99.90;;;;;;5092853;28;20628;-82
2021/12/18 01:27:11;;;;;;;104.50;20.23;;;4.40;99.90;;;;;;5093459;28;20201;-79
2021/12/18 01:29:39;;;;;;;91.70;20.93;;;4.40;99.90;;;;;;5093263;28;20596;-83
2021/12/18 01:32:07;;;;;;;109.87;22.37;;;4.40;99.90;;;;;;5092753;28;20248;-82
2021/12/18 01:34:36;;;;;;;115.53;22.97;;;4.30;99.90;;;;;;5092826;28;20656;-81
2021/12/18 01:37:03;;;;;;;96.37;22.00;;;4.40;99.90;;;;;;5092819;28;20191;-79
2021/12/18 01:39:30;;;;;;;102.10;22.87;;;4.30;99.90;;;;;;5093177;28;20204;-81
2021/12/18 01:42:19;;;;;;;107.63;22.27;;;4.40;99.90;;;;;;5093076;28;20248;-79
2021/12/18 01:44:58;;;;;;;113.87;23.37;;;4.30;99.90;;;;;;5092963;28;20191;-78
2021/12/18 01:52:57;;;;;;;104.07;22.23;;;4.40;99.90;;;;;;5092074;28;20261;-80
2021/12/18 01:55:28;;;;;;;98.70;22.43;;;4.30;99.90;;;;;;5092882;28;20199;-82
2021/12/18 01:57:55;;;;;;;111.57;23.30;;;4.40;99.90;;;;;;5092921;28;20241;-80
2021/12/18 02:00:24;;;;;;;90.37;20.63;;;4.40;99.90;;;;;;5092539;28;20195;-83
2021/12/18 02:02:52;;;;;;;74.30;18.43;;;4.40;99.90;;;;;;5092602;28;20226;-82
2021/12/18 02:05:20;;;;;;;51.77;16.37;;;4.40;99.90;;;;;;5092457;28;20187;-81
2021/12/18 02:07:48;;;;;;;60.23;17.20;;;4.40;99.90;;;;;;5092665;28;20664;-81
2021/12/18 02:10:19;;;;;;;55.57;15.93;;;4.40;99.90;;;;;;5092524;28;20222;-82
2021/12/18 02:12:55;;;;;;;46.73;14.13;;;4.50;99.90;;;;;;5092084;28;20544;-80
2021/12/18 02:20:55;;;;;;;43.10;13.40;;;4.40;99.90;;;;;;5092317;28;20662;-83
2021/12/18 02:23:23;;;;;;;40.63;13.33;;;4.40;99.90;;;;;;5092202;28;20215;-80
2021/12/18 02:25:50;;;;;;;39.03;12.23;;;4.40;99.90;;;;;;5091734;28;20621;-81
2021/12/18 02:28:24;;;;;;;32.53;11.73;;;4.40;99.90;;;;;;5093048;28;20266;-80
2021/12/18 02:30:55;;;;;;;26.97;10.53;;;4.40;99.90;;;;;;5092376;28;20184;-81
2021/12/18 02:33:23;;;;;;;22.87;9.80;;;4.40;99.90;;;;;;5092476;28;20195;-80
2021/12/18 02:35:53;;;;;;;22.83;9.27;;;4.40;99.90;;;;;;5092270;28;20257;-81
2021/12/18 02:38:28;;;;;;;26.57;8.83;;;4.40;99.90;;;;;;5075598;28;20245;-81
2021/12/18 02:41:10;;;;;;;21.93;9.83;;;4.40;99.90;;;;;;5072140;28;20551;-82
2021/12/18 02:43:40;;;;;;;18.30;8.90;;;4.40;99.90;;;;;;5072113;28;20345;-80
2021/12/18 02:46:09;;;;;;;21.00;9.03;;;4.30;99.90;;;;;;5071902;28;20191;-81
2021/12/18 02:48:38;;;;;;;17.17;8.80;;;4.30;99.90;;;;;;5072373;28;20810;-81
2021/12/18 02:51:05;;;;;;;20.33;8.30;;;4.30;99.90;;;;;;5080548;28;20191;-81
2021/12/18 02:53:35;;;;;;;22.20;8.73;;;4.30;99.90;;;;;;5092236;28;20191;-80
2021/12/18 02:56:05;;;;;;;18.47;9.83;;;4.30;99.90;;;;;;5091763;28;20690;-81
2021/12/18 02:58:35;;;;;;;20.93;9.23;;;4.30;99.90;;;;;;5092516;28;20286;-80
2021/12/18 03:01:04;;;;;;;22.73;9.90;;;4.30;99.90;;;;;;5091898;28;20570;-80
2021/12/18 03:03:34;;;;;;;21.23;9.73;;;4.20;99.90;;;;;;5092143;28;20574;-79
2021/12/18 03:06:16;;;;;;;21.17;9.83;;;4.20;99.90;;;;;;5096206;28;20195;-79
2021/12/18 03:08:51;;;;;;;20.87;9.17;;;4.20;99.90;;;;;;5096429;28;20186;-81
2021/12/18 03:23:09;;;;;;;21.23;8.77;;;4.00;99.90;;;;;;5090113;28;20538;-81
2021/12/18 03:25:38;;;;;;;18.53;7.90;;;4.00;99.90;;;;;;5095640;28;20249;-81
2021/12/18 03:28:07;;;;;;;22.43;8.00;;;4.00;99.90;;;;;;5095807;28;20193;-79
2021/12/18 03:30:35;;;;;;;17.50;7.87;;;4.00;99.90;;;;;;5095878;28;20196;-81
2021/12/18 03:33:03;;;;;;;21.83;7.77;;;4.00;99.90;;;;;;5095613;28;20207;-81
2021/12/18 03:35:31;;;;;;;18.63;8.00;;;4.00;99.90;;;;;;5095077;28;20194;-79
2021/12/18 03:37:58;;;;;;;17.53;8.37;;;4.00;99.90;;;;;;5095433;28;20199;-80
2021/12/18 03:40:26;;;;;;;19.43;8.53;;;4.00;99.90;;;;;;5095514;28;20195;-82
2021/12/18 03:42:54;;;;;;;17.97;8.00;;;4.10;99.90;;;;;;5095242;28;20191;-79
2021/12/18 03:45:23;;;;;;;15.13;8.30;;;4.10;99.90;;;;;;5094930;28;20209;-80
2021/12/18 03:47:52;;;;;;;17.40;8.20;;;4.00;99.90;;;;;;5095097;28;20191;-79
2021/12/18 03:50:20;;;;;;;21.00;9.70;;;4.10;99.90;;;;;;5094963;28;20663;-83
2021/12/18 03:52:47;;;;;;;19.97;9.33;;;4.10;99.90;;;;;;5095645;28;20593;-83
2021/12/18 03:55:15;;;;;;;23.23;9.43;;;4.10;99.90;;;;;;5094786;28;20674;-79
2021/12/18 03:57:42;;;;;;;17.53;8.67;;;4.10;99.90;;;;;;5094576;28;20198;-79
2021/12/18 04:00:13;;;;;;;18.57;9.37;;;4.10;99.90;;;;;;5094821;28;20240;-82
2021/12/18 04:02:41;;;;;;;21.27;10.23;;;4.10;99.90;;;;;;5095424;28;20557;-78
2021/12/18 04:05:10;;;;;;;21.00;10.07;;;4.10;99.90;;;;;;5094471;28;20211;-83
2021/12/18 04:07:41;;;;;;;18.70;10.03;;;4.10;99.90;;;;;;5094998;28;20270;-78
2021/12/18 04:10:10;;;;;;;17.03;9.07;;;4.00;99.90;;;;;;5094563;28;20223;-80
2021/12/18 04:12:37;;;;;;;20.63;10.03;;;4.00;99.90;;;;;;5094734;28;20221;-81
2021/12/18 04:15:05;;;;;;;18.93;10.23;;;4.00;99.90;;;;;;5093954;28;20199;-80
2021/12/18 04:17:33;;;;;;;21.23;10.30;;;4.00;99.90;;;;;;5094453;28;20199;-81
2021/12/18 04:20:00;;;;;;;15.20;9.00;;;4.00;99.90;;;;;;5094772;28;20183;-79
2021/12/18 04:22:28;;;;;;;15.83;8.47;;;4.00;99.90;;;;;;5094585;28;20252;-80
2021/12/18 04:24:55;;;;;;;17.30;8.53;;;4.00;99.90;;;;;;5094549;28;20213;-80
2021/12/18 04:27:22;;;;;;;17.47;9.93;;;4.00;99.90;;;;;;5094699;28;20202;-79
2021/12/18 04:29:49;;;;;;;18.07;8.10;;;4.00;99.90;;;;;;5094561;28;20205;-81
2021/12/18 04:32:16;;;;;;;17.30;7.90;;;4.00;99.90;;;;;;5094598;28;20218;-80
2021/12/18 04:34:44;;;;;;;13.03;7.73;;;3.90;99.90;;;;;;5093947;28;20194;-82
2021/12/18 04:37:11;;;;;;;15.30;8.47;;;4.00;99.90;;;;;;5093923;28;20190;-80
2021/12/18 04:39:38;;;;;;;18.13;8.17;;;4.00;99.90;;;;;;5093891;28;20216;-79
2021/12/18 04:42:05;;;;;;;18.63;8.53;;;4.00;99.90;;;;;;5094106;28;20195;-81
2021/12/18 04:44:32;;;;;;;15.43;8.00;;;4.00;99.90;;;;;;5094159;28;20215;-79
2021/12/18 04:47:00;;;;;;;15.07;7.50;;;4.00;99.90;;;;;;5093815;28;20188;-80
2021/12/18 04:49:27;;;;;;;15.33;8.67;;;4.00;99.90;;;;;;5094265;28;20194;-80
2021/12/18 04:51:55;;;;;;;16.90;8.67;;;4.00;99.90;;;;;;5093896;28;20195;-80
2021/12/18 04:54:22;;;;;;;13.43;8.00;;;4.00;99.90;;;;;;5094159;28;20199;-81
2021/12/18 04:56:49;;;;;;;15.50;9.37;;;4.00;99.90;;;;;;5094272;28;20198;-83
2021/12/18 04:59:17;;;;;;;15.47;8.90;;;4.00;99.90;;;;;;5093197;28;20187;-81
2021/12/18 05:01:44;;;;;;;17.03;9.03;;;4.00;99.90;;;;;;5094062;28;20227;-81
2021/12/18 05:04:14;;;;;;;16.23;9.67;;;4.00;99.90;;;;;;5093355;28;20222;-81
2021/12/18 05:06:44;;;;;;;17.17;9.23;;;4.00;99.90;;;;;;5094068;28;20282;-81
2021/12/18 05:09:14;;;;;;;17.73;9.67;;;4.00;99.90;;;;;;5093874;28;20340;-80
2021/12/18 05:11:43;;;;;;;21.27;10.13;;;4.00;99.90;;;;;;5093699;28;20195;-80
2021/12/18 05:14:10;;;;;;;18.87;9.07;;;4.00;99.90;;;;;;5093494;28;20202;-82
2021/12/18 05:16:38;;;;;;;21.10;10.13;;;4.00;99.90;;;;;;5093668;28;20198;-79
2021/12/18 05:19:05;;;;;;;17.73;9.70;;;4.00;99.90;;;;;;5093740;28;20203;-80
2021/12/18 05:21:32;;;;;;;17.87;10.07;;;4.00;99.90;;;;;;5093572;28;20195;-79
2021/12/18 05:23:59;;;;;;;18.63;10.40;;;4.00;99.90;;;;;;5093213;28;20273;-79
2021/12/18 05:26:28;;;;;;;20.70;10.83;;;4.00;99.90;;;;;;5093723;28;20195;-79
2021/12/18 05:28:56;;;;;;;19.13;10.70;;;4.00;99.90;;;;;;5092451;28;20198;-80
2021/12/18 05:31:23;;;;;;;17.40;10.17;;;4.00;99.90;;;;;;5094097;28;20200;-82
2021/12/18 05:33:54;;;;;;;19.17;10.30;;;4.10;99.90;;;;;;5093367;28;20247;-84
2021/12/18 05:36:36;;;;;;;19.37;9.70;;;4.10;99.90;;;;;;5092761;28;20658;-80
2021/12/18 05:39:07;;;;;;;19.07;10.23;;;4.10;99.90;;;;;;5092939;28;20197;-80
2021/12/18 05:41:36;;;;;;;19.87;9.50;;;4.10;99.90;;;;;;5092773;28;20191;-82
2021/12/18 05:44:04;;;;;;;18.07;9.27;;;4.10;99.90;;;;;;5092675;28;20305;-80
2021/12/18 05:46:31;;;;;;;15.97;10.10;;;4.10;99.90;;;;;;5092841;28;20592;-81
2021/12/18 05:48:58;;;;;;;19.23;10.30;;;4.10;99.90;;;;;;5092665;28;20201;-81
2021/12/18 05:51:25;;;;;;;17.60;9.87;;;4.10;99.90;;;;;;5093394;28;20195;-81
2021/12/18 05:53:52;;;;;;;17.60;10.20;;;4.20;99.90;;;;;;5092264;28;20202;-82
2021/12/18 05:56:20;;;;;;;19.07;11.10;;;4.20;99.90;;;;;;5092909;28;20255;-80
2021/12/18 05:58:48;;;;;;;19.10;11.20;;;4.20;99.90;;;;;;5092331;28;20193;-82
2021/12/18 06:01:18;;;;;;;20.03;9.87;;;4.20;99.90;;;;;;5092973;28;20210;-80
2021/12/18 06:03:46;;;;;;;22.13;10.97;;;4.20;99.90;;;;;;5092831;28;20288;-81
2021/12/18 06:06:13;;;;;;;21.33;11.40;;;4.20;99.90;;;;;;5092539;28;20195;-81
2021/12/18 06:08:42;;;;;;;17.67;10.93;;;4.30;99.90;;;;;;5092216;28;20191;-80
2021/12/18 06:11:13;;;;;;;20.57;12.10;;;4.30;99.90;;;;;;5092837;28;20226;-79
2021/12/18 06:13:41;;;;;;;20.47;11.53;;;4.30;99.90;;;;;;5092692;28;20218;-79
2021/12/18 06:16:10;;;;;;;19.40;11.63;;;4.30;99.90;;;;;;5092503;28;20202;-81
2021/12/18 06:18:40;;;;;;;39.63;19.00;;;4.30;99.90;;;;;;5092472;28;20191;-79
2021/12/18 06:21:07;;;;;;;43.60;19.03;;;4.40;99.90;;;;;;5092980;28;20195;-81
2021/12/18 06:23:34;;;;;;;37.63;16.17;;;4.40;99.90;;;;;;5092497;28;20191;-81
2021/12/18 06:26:02;;;;;;;44.63;18.27;;;4.40;99.90;;;;;;5092412;28;20226;-80
2021/12/18 06:28:29;;;;;;;53.47;17.67;;;4.40;99.90;;;;;;5091545;28;20628;-79
2021/12/18 06:30:56;;;;;;;29.40;13.47;;;4.30;99.90;;;;;;5092875;28;20540;-82
2021/12/18 06:33:25;;;;;;;70.93;23.43;;;4.30;99.90;;;;;;5091976;28;20191;-82
2021/12/18 06:35:52;;;;;;;66.87;22.10;;;4.30;99.90;;;;;;5092070;28;20199;-80
2021/12/18 06:38:20;;;;;;;38.23;15.77;;;4.40;99.90;;;;;;5092293;28;20202;-79
2021/12/18 06:40:50;;;;;;;33.57;15.07;;;4.30;99.90;;;;;;5096584;28;20242;-81
2021/12/18 06:43:17;;;;;;;22.00;9.90;;;4.30;99.90;;;;;;5096461;28;20192;-81
2021/12/18 06:45:44;;;;;;;23.50;10.80;;;4.30;99.90;;;;;;5096251;28;20219;-79
2021/12/18 06:48:12;;;;;;;25.63;10.00;;;4.30;99.90;;;;;;5096618;28;20265;-79
2021/12/18 06:50:41;;;;;;;21.53;10.03;;;4.30;99.90;;;;;;5096389;28;20202;-81
2021/12/18 06:53:08;;;;;;;21.60;9.70;;;4.30;99.90;;;;;;5096168;28;20195;-80
2021/12/18 06:55:36;;;;;;;18.20;8.27;;;4.30;99.90;;;;;;5095903;28;20573;-81
2021/12/18 06:58:03;;;;;;;25.23;10.23;;;4.30;99.90;;;;;;5096073;28;20196;-81
2021/12/18 07:00:30;;;;;;;17.37;8.27;;;4.30;99.90;;;;;;5096037;28;20188;-83
2021/12/18 07:02:57;;;;;;;24.43;9.83;;;4.30;99.90;;;;;;5096427;28;20195;-80
2021/12/18 07:05:24;;;;;;;25.33;11.60;;;4.30;99.90;;;;;;5095822;28;20275;-81
2021/12/18 07:07:53;;;;;;;28.40;12.00;;;4.30;99.90;;;;;;5095516;28;20655;-79
2021/12/18 07:10:21;;;;;;;25.33;10.67;;;4.30;99.90;;;;;;5095640;28;20695;-82
2021/12/18 07:12:48;;;;;;;30.63;13.20;;;4.30;99.90;;;;;;5095962;28;20199;-81
2021/12/18 07:15:15;;;;;;;23.63;10.37;;;4.30;99.90;;;;;;5095890;28;20203;-81
2021/12/18 07:17:42;;;;;;;25.97;10.50;;;4.30;99.90;;;;;;5095970;28;20195;-80
2021/12/18 07:20:11;;;;;;;19.33;8.57;;;4.30;99.90;;;;;;5095557;28;20578;-81
2021/12/18 07:22:39;;;;;;;17.57;8.60;;;4.30;99.90;;;;;;5095916;28;20197;-80
2021/12/18 07:25:08;;;;;;;15.50;8.17;;;4.30;99.90;;;;;;5095540;28;20221;-78
2021/12/18 07:27:36;;;;;;;18.43;9.10;;;4.30;99.90;;;;;;5095112;28;20205;-78
2021/12/18 07:30:04;;;;;;;19.77;9.97;;;4.30;99.90;;;;;;5095656;28;20197;-78
2021/12/18 07:32:31;;;;;;;18.43;8.80;;;4.30;99.90;;;;;;5095921;28;20191;-78
2021/12/18 07:34:58;;;;;;;14.27;8.40;;;4.30;99.90;;;;;;5095550;28;20214;-78
2021/12/18 07:37:25;;;;;;;14.53;7.23;;;4.30;99.90;;;;;;5095627;28;20286;-78
2021/12/18 07:39:52;;;;;;;17.47;9.93;;;4.30;99.90;;;;;;5098568;28;20278;-79
2021/12/18 07:42:21;;;;;;;18.00;9.47;;;4.30;99.90;;;;;;5098401;28;20202;-80
2021/12/18 07:44:48;;;;;;;15.30;8.40;;;4.30;99.90;;;;;;5094981;28;20215;-79
2021/12/18 07:47:15;;;;;;;15.60;8.00;;;4.40;99.90;;;;;;5095506;28;20202;-80
2021/12/18 07:49:46;;;;;;;15.63;8.67;;;4.40;99.90;;;;;;5094789;28;20192;-81
2021/12/18 07:52:13;;;;;;;28.80;13.50;;;4.40;99.90;;;;;;5095101;28;20175;-77
2021/12/18 07:54:40;;;;;;;87.03;37.53;;;4.40;99.90;;;;;;5094706;28;20657;-79
2021/12/18 07:57:08;;;;;;;62.50;29.63;;;4.40;99.90;;;;;;5096188;28;20277;-79
2021/12/18 07:59:36;;;;;;;67.27;28.20;;;4.40;99.90;;;;;;5095321;28;20252;-80
2021/12/18 08:02:04;;;;;;;77.10;31.97;;;4.40;99.90;;;;;;5095062;28;20247;-80
2021/12/18 08:04:32;;;;;;;74.30;31.23;;;4.40;99.90;;;;;;5098222;28;20220;-81
2021/12/18 08:06:59;;;;;;;52.57;19.73;;;4.40;99.90;;;;;;5100978;28;20259;-82
2021/12/18 08:09:26;;;;;;;50.50;17.43;;;4.40;99.90;;;;;;5094842;28;20240;-82
2021/12/18 08:11:53;;;;;;;116.57;37.50;;;4.40;99.90;;;;;;5095568;28;20726;-81
2021/12/18 08:14:20;;;;;;;76.90;27.73;;;4.40;99.90;;;;;;5094338;28;20256;-81
2021/12/18 08:16:49;;;;;;;102.70;32.00;;;4.50;99.90;;;;;;5094843;28;20256;-80
2021/12/18 08:19:16;;;;;;;85.17;27.37;;;4.50;99.90;;;;;;5094641;28;20195;-79
2021/12/18 08:21:43;;;;;;;82.10;27.17;;;4.40;99.90;;;;;;5094529;28;20202;-80
2021/12/18 08:24:10;;;;;;;58.70;22.00;;;4.50;99.90;;;;;;5094483;28;20193;-79
2021/12/18 08:26:37;;;;;;;96.40;32.10;;;4.50;99.90;;;;;;5094177;28;20752;-79
2021/12/18 08:29:04;;;;;;;83.57;27.73;;;4.50;99.90;;;;;;5096927;28;20192;-79
2021/12/18 08:31:32;;;;;;;50.97;20.33;;;4.50;99.90;;;;;;5093698;28;20184;-79
2021/12/18 08:34:00;;;;;;;31.83;14.23;;;4.50;99.90;;;;;;5096188;28;20202;-81
2021/12/18 08:36:27;;;;;;;41.33;20.23;;;4.50;99.90;;;;;;5093972;28;20711;-78
2021/12/18 08:38:54;;;;;;;27.07;13.83;;;4.60;99.90;;;;;;5096092;28;20183;-80
2021/12/18 08:41:22;;;;;;;32.70;16.87;;;4.50;99.90;;;;;;5101354;28;20195;-78
2021/12/18 08:43:52;;;;;;;48.53;28.77;;;4.50;99.90;;;;;;5108486;28;20264;-83
2021/12/18 08:46:21;;;;;;;30.70;16.40;;;4.50;99.90;;;;;;5101994;28;20190;-83
2021/12/18 08:48:50;;;;;;;32.23;18.47;;;4.60;99.90;;;;;;5114496;28;20191;-78
2021/12/18 08:51:18;;;;;;;24.37;12.87;;;4.60;99.90;;;;;;5093737;28;20202;-79
2021/12/18 08:53:46;;;;;;;57.70;28.27;;;4.60;99.90;;;;;;5094032;28;20288;-78
2021/12/18 08:56:13;;;;;;;52.30;26.83;;;4.60;99.90;;;;;;5093872;28;20207;-78
2021/12/18 08:58:40;;;;;;;49.17;24.87;;;4.70;99.90;;;;;;5107972;28;20221;-79
2021/12/18 09:01:07;;;;;;;64.03;29.17;;;4.70;99.90;;;;;;5095485;28;20276;-80
2021/12/18 09:03:34;;;;;;;44.20;20.77;;;4.70;99.90;;;;;;5095800;28;20195;-78
2021/12/18 09:06:01;;;;;;;43.00;21.97;;;4.80;99.90;;;;;;5099299;28;20219;-80
2021/12/18 09:08:29;;;;;;;26.07;15.70;;;4.90;99.90;;;;;;5093402;28;20191;-79
2021/12/18 09:10:56;;;;;;;36.07;21.47;;;4.90;99.90;;;;;;5093961;28;20284;-79
2021/12/18 09:13:23;;;;;;;39.80;17.53;;;4.90;99.90;;;;;;5093388;28;20603;-79
2021/12/18 09:15:53;;;;;;;39.30;16.00;;;4.90;99.90;;;;;;5095494;28;20252;-80
2021/12/18 09:18:21;;;;;;;107.10;39.23;;;4.90;99.90;;;;;;5094499;28;20286;-77
2021/12/18 09:21:02;;;;;;;18.53;10.03;;;5.00;99.90;;;;;;5093307;28;20785;-78
2021/12/18 09:23:40;;;;;;;33.97;14.10;;;5.00;99.90;;;;;;5114388;28;20167;-82
2021/12/18 09:26:07;;;;;;;44.17;16.40;;;5.00;99.90;;;;;;5098938;28;20215;-79
2021/12/18 09:28:34;;;;;;;41.57;16.47;;;5.00;99.90;;;;;;5093432;28;20210;-79
2021/12/18 09:31:02;;;;;;;36.47;23.57;;;5.10;99.90;;;;;;5093182;28;20255;-79
2021/12/18 09:33:29;;;;;;;26.40;16.47;;;5.10;99.90;;;;;;5093343;28;20217;-79
2021/12/18 09:35:56;;;;;;;17.70;11.13;;;5.10;99.90;;;;;;5092768;28;20742;-79
2021/12/18 09:38:23;;;;;;;13.73;9.27;;;5.10;99.90;;;;;;5093122;28;20244;-79
2021/12/18 09:40:51;;;;;;;10.97;6.70;;;5.10;99.90;;;;;;5093016;28;20210;-79
2021/12/18 09:43:18;;;;;;;8.00;5.40;;;5.10;99.90;;;;;;5092883;28;20679;-79
2021/12/18 09:45:46;;;;;;;6.40;4.17;;;5.20;99.90;;;;;;5097477;28;20223;-77
2021/12/18 09:48:14;;;;;;;7.67;4.80;;;5.20;99.90;;;;;;5093175;28;20215;-77
2021/12/18 09:50:43;;;;;;;5.30;3.07;;;5.20;99.90;;;;;;5093169;28;20206;-77
2021/12/18 09:53:11;;;;;;;4.20;3.07;;;5.20;99.90;;;;;;5095335;28;20183;-78
2021/12/18 09:55:40;;;;;;;5.47;3.80;;;5.30;99.90;;;;;;5105738;28;20199;-80
2021/12/18 09:58:09;;;;;;;5.40;3.70;;;5.30;99.90;;;;;;5095947;28;20218;-80
2021/12/18 10:00:36;;;;;;;4.33;3.53;;;5.30;99.90;;;;;;5093770;28;20205;-77
2021/12/18 10:03:03;;;;;;;5.30;3.40;;;5.40;99.90;;;;;;5097561;28;20223;-79
2021/12/18 10:05:33;;;;;;;4.17;3.13;;;5.40;99.90;;;;;;5095072;28;20223;-79
2021/12/18 10:08:17;;;;;;;4.43;3.33;;;5.50;99.90;;;;;;5098955;28;20164;-78
2021/12/18 10:11:04;;;;;;;5.60;3.33;;;5.50;99.90;;;;;;5098394;28;20245;-78
2021/12/18 10:13:51;;;;;;;4.23;3.10;;;5.60;99.90;;;;;;5097085;28;20183;-77
2021/12/18 10:16:27;;;;;;;4.03;2.90;;;5.60;99.90;;;;;;5092196;28;20210;-76
2021/12/18 10:18:55;;;;;;;5.60;4.10;;;5.60;99.90;;;;;;5084475;28;20192;-80
2021/12/18 10:21:26;;;;;;;7.80;4.73;;;5.60;99.90;;;;;;5080736;28;20200;-77
2021/12/18 10:23:54;;;;;;;5.77;3.93;;;5.70;99.90;;;;;;5083053;28;20192;-78
2021/12/18 10:26:37;;;;;;;6.97;4.47;;;5.70;99.90;;;;;;5073930;28;20221;-79
2021/12/18 10:29:22;;;;;;;7.40;3.90;;;5.60;99.90;;;;;;5092674;28;20180;-77
2021/12/18 10:31:49;;;;;;;5.57;3.80;;;5.70;99.90;;;;;;5092275;28;20267;-77
2021/12/18 10:34:25;;;;;;;10.40;5.10;;;5.70;99.90;;;;;;5095343;28;20188;-78
2021/12/18 10:37:17;;;;;;;40.03;20.13;;;5.70;99.90;;;;;;5097344;28;20198;-81
2021/12/18 10:40:12;;;;;;;12.47;7.67;;;5.70;99.90;;;;;;5116344;28;20187;-83
2021/12/18 10:42:40;;;;;;;19.17;9.00;;;5.70;99.90;;;;;;5112996;28;20194;-80
2021/12/18 10:45:28;;;;;;;29.10;14.90;;;5.70;99.90;;;;;;5108126;28;20195;-83
2021/12/18 10:47:59;;;;;;;35.63;16.33;;;5.70;99.90;;;;;;5088413;28;20215;-79
2021/12/18 10:50:32;;;;;;;83.43;29.60;;;5.70;99.90;;;;;;5089956;28;20184;-78
2021/12/18 10:53:03;;;;;;;76.67;28.20;;;5.70;99.90;;;;;;5091755;28;20663;-78
2021/12/18 10:55:39;;;;;;;96.83;33.17;;;5.70;99.90;;;;;;5092143;28;20635;-80
2021/12/18 10:58:11;;;;;;;63.90;26.23;;;5.60;99.90;;;;;;5092571;28;20279;-79
2021/12/18 11:00:51;;;;;;;93.40;32.27;;;5.60;99.90;;;;;;5092200;28;20190;-79
2021/12/18 11:03:23;;;;;;;75.93;26.97;;;5.60;99.90;;;;;;5091483;28;20179;-78
2021/12/18 11:06:11;;;;;;;95.57;37.73;;;5.60;99.90;;;;;;5071133;28;20696;-78
2021/12/18 11:08:53;;;;;;;80.47;30.13;;;5.60;99.90;;;;;;5091253;28;20192;-79
2021/12/18 11:14:07;;;;;;;63.83;25.17;;;5.70;99.90;;;;;;5087979;28;20229;-80
2021/12/18 11:16:36;;;;;;;61.67;26.07;;;5.70;99.90;;;;;;5092792;28;20245;-79
2021/12/18 11:19:04;;;;;;;62.13;25.27;;;5.70;99.90;;;;;;5098404;28;20196;-79
2021/12/18 11:21:31;;;;;;;59.80;22.13;;;5.80;99.90;;;;;;5097354;28;20287;-79
2021/12/18 11:24:04;;;;;;;57.10;24.17;;;5.80;99.90;;;;;;5095042;28;20199;-86
2021/12/18 11:26:41;;;;;;;40.00;18.17;;;5.80;99.90;;;;;;5096502;28;20208;-80
2021/12/18 11:29:12;;;;;;;32.77;14.27;;;5.80;99.90;;;;;;5096513;28;20184;-80
2021/12/18 11:31:49;;;;;;;19.53;9.93;;;5.80;99.90;;;;;;5096853;28;20231;-82
2021/12/18 11:34:17;;;;;;;20.73;10.70;;;5.90;99.90;;;;;;5096035;28;20180;-79
2021/12/18 11:36:46;;;;;;;16.50;10.23;;;5.80;99.90;;;;;;5096492;28;20248;-77
2021/12/18 11:39:15;;;;;;;27.57;14.77;;;5.80;99.90;;;;;;5096736;28;20200;-80
2021/12/18 11:42:06;;;;;;;17.17;9.63;;;5.80;99.90;;;;;;5110913;28;20192;-82
2021/12/18 11:44:43;;;;;;;19.60;10.27;;;5.80;99.90;;;;;;5101811;28;20195;-80
2021/12/18 11:47:39;;;;;;;14.47;8.33;;;5.70;99.90;;;;;;5097544;28;20226;-80
2021/12/18 11:50:23;;;;;;;28.17;15.43;;;5.70;99.90;;;;;;5076487;28;20675;-80
2021/12/18 11:52:55;;;;;;;23.23;13.47;;;5.70;99.90;;;;;;5088897;28;20214;-78
2021/12/18 11:55:29;;;;;;;22.87;11.97;;;5.70;99.90;;;;;;5095351;28;20255;-79
2021/12/18 11:58:00;;;;;;;31.07;15.83;;;5.70;99.90;;;;;;5094931;28;20579;-78
2021/12/18 12:00:45;;;;;;;37.97;18.57;;;5.70;99.90;;;;;;5101123;28;20187;-80
2021/12/18 12:03:27;;;;;;;40.63;19.07;;;5.70;99.90;;;;;;5094891;28;20183;-80
2021/12/18 12:05:56;;;;;;;36.90;17.37;;;5.80;99.90;;;;;;5094694;28;20200;-78
2021/12/18 12:08:35;;;;;;;49.53;22.97;;;5.80;99.90;;;;;;5100096;28;20257;-78
2021/12/18 12:11:17;;;;;;;28.80;15.97;;;5.80;99.90;;;;;;5080204;28;20228;-81
2021/12/18 12:14:06;;;;;;;37.23;18.43;;;5.80;99.90;;;;;;5080665;28;20219;-80
2021/12/18 12:17:18;;;;;;;11.90;7.17;;;5.80;99.90;;;;;;5078896;28;20594;-77
2021/12/18 12:20:02;;;;;;;12.53;8.17;;;5.80;99.90;;;;;;5076998;28;20188;-81
2021/12/18 12:23:01;;;;;;;18.57;12.20;;;5.80;99.90;;;;;;5088456;28;20652;-82
2021/12/18 12:25:45;;;;;;;16.20;10.77;;;5.70;99.90;;;;;;5083724;28;20196;-79
2021/12/18 12:28:16;;;;;;;14.73;9.90;;;5.80;99.90;;;;;;5073783;28;20200;-81
2021/12/18 12:30:47;;;;;;;21.17;12.90;;;5.80;99.90;;;;;;5074877;28;20652;-80
2021/12/18 12:33:23;;;;;;;22.43;10.97;;;5.80;99.90;;;;;;5074665;28;20194;-80
2021/12/18 12:36:04;;;;;;;18.13;10.50;;;5.80;99.90;;;;;;5074379;28;20591;-82
2021/12/18 12:38:34;;;;;;;13.37;8.83;;;5.80;99.90;;;;;;5084953;28;20195;-80
2021/12/18 12:41:31;;;;;;;20.10;13.03;;;5.80;99.90;;;;;;5093756;28;20192;-81
2021/12/18 12:44:02;;;;;;;14.60;9.90;;;5.80;99.90;;;;;;5087704;28;20204;-81
2021/12/18 12:46:31;;;;;;;71.20;34.27;;;5.80;99.90;;;;;;5073788;28;20257;-78
2021/12/18 12:49:05;;;;;;;247.67;84.57;;;5.80;99.90;;;;;;5073792;28;20668;-79
2021/12/18 12:52:03;;;;;;;41.03;20.43;;;5.80;99.90;;;;;;5076246;28;20184;-79
2021/12/18 12:55:02;;;;;;;30.57;20.00;;;5.80;99.90;;;;;;5088622;28;20724;-80
2021/12/18 12:57:44;;;;;;;54.83;35.10;;;5.80;99.90;;;;;;5064229;28;20283;-81
2021/12/18 13:00:44;;;;;;;37.83;24.47;;;5.80;99.90;;;;;;5073571;28;20691;-80
2021/12/18 13:03:24;;;;;;;38.57;26.17;;;5.80;99.90;;;;;;5077530;28;20234;-80
2021/12/18 13:05:54;;;;;;;32.00;20.67;;;5.80;99.90;;;;;;5073140;28;20234;-80
2021/12/18 13:08:24;;;;;;;29.30;19.27;;;5.80;99.90;;;;;;5073732;28;20234;-81
2021/12/18 13:10:53;;;;;;;31.30;17.37;;;5.70;99.90;;;;;;5073066;28;20246;-80
2021/12/18 13:13:33;;;;;;;11.87;7.80;;;5.70;99.90;;;;;;5074153;28;20191;-80
2021/12/18 13:16:06;;;;;;;18.63;9.87;;;5.70;99.90;;;;;;5073582;28;20176;-80
2021/12/18 13:18:37;;;;;;;12.53;8.00;;;5.70;99.90;;;;;;5073288;28;20198;-80
2021/12/18 13:21:06;;;;;;;18.03;10.30;;;5.70;99.90;;;;;;5083969;28;20207;-79
2021/12/18 13:23:47;;;;;;;31.40;16.50;;;5.70;99.90;;;;;;5093257;28;20195;-80
2021/12/18 13:26:16;;;;;;;19.37;10.50;;;5.70;99.90;;;;;;5093967;28;20294;-80
2021/12/18 13:28:52;;;;;;;29.03;13.23;;;5.70;99.90;;;;;;5094065;28;20203;-79
2021/12/18 13:31:21;;;;;;;57.90;23.13;;;5.60;99.90;;;;;;5089636;28;20179;-80